Terminal Aerodrome Forecast
Issued by NWS

Home | Current Version | Previous Version | Text Only | Print | Product List | Glossary On
Versions: 1 2 3 4 5 6 7 8 9 10 11 12 13 14 15 16 17 18
000
FTUS44 KBMX 231400 AAA
TAFTCL
TAF AMD
KTCL 231418Z 2314/2412 12008KT 5SM BR OVC008
      TEMPO 2316/2318 3SM -SHRA
     FM231800 12012G18KT 5SM -SHRA OVC015
      TEMPO 2319/2322 2SM TSRA OVC010CB
     FM232200 18012G20KT P6SM VCSH BKN015=

USA.gov is the U.S. government's official web portal to all federal, state and local government web resources and services.